sensor_id;sensor_type;location;lat;lon;timestamp;temperature;humidity
40828;DHT22;26549;50.918;5.338;2022-07-04T00:00:36;17.90;99.20
40828;DHT22;26549;50.918;5.338;2022-07-04T00:03:02;17.90;99.00
40828;DHT22;26549;50.918;5.338;2022-07-04T00:05:28;17.70;99.50
40828;DHT22;26549;50.918;5.338;2022-07-04T00:07:54;17.80;99.40
40828;DHT22;26549;50.918;5.338;2022-07-04T00:10:21;17.70;99.50
40828;DHT22;26549;50.918;5.338;2022-07-04T00:12:47;17.70;99.60
40828;DHT22;26549;50.918;5.338;2022-07-04T00:15:13;17.60;99.70
40828;DHT22;26549;50.918;5.338;2022-07-04T00:17:39;17.70;99.60
40828;DHT22;26549;50.918;5.338;2022-07-04T00:20:06;17.50;99.70
40828;DHT22;26549;50.918;5.338;2022-07-04T00:22:32;17.50;99.80
40828;DHT22;26549;50.918;5.338;2022-07-04T00:24:58;17.60;99.80
40828;DHT22;26549;50.918;5.338;2022-07-04T00:27:24;17.60;99.70
40828;DHT22;26549;50.918;5.338;2022-07-04T00:29:51;17.50;99.70
40828;DHT22;26549;50.918;5.338;2022-07-04T00:32:17;17.50;99.90
40828;DHT22;26549;50.918;5.338;2022-07-04T00:34:43;17.30;99.90
40828;DHT22;26549;50.918;5.338;2022-07-04T00:37:09;17.30;99.90
40828;DHT22;26549;50.918;5.338;2022-07-04T00:39:35;17.30;99.90
40828;DHT22;26549;50.918;5.338;2022-07-04T00:42:01;17.30;99.90
40828;DHT22;26549;50.918;5.338;2022-07-04T00:44:28;17.40;99.90
40828;DHT22;26549;50.918;5.338;2022-07-04T00:46:58;17.40;99.90
40828;DHT22;26549;50.918;5.338;2022-07-04T00:49:25;17.50;99.80
40828;DHT22;26549;50.918;5.338;2022-07-04T00:51:51;17.50;99.70
40828;DHT22;26549;50.918;5.338;2022-07-04T00:54:17;17.50;99.80
40828;DHT22;26549;50.918;5.338;2022-07-04T00:56:45;17.60;99.70
40828;DHT22;26549;50.918;5.338;2022-07-04T00:59:11;17.50;99.80
40828;DHT22;26549;50.918;5.338;2022-07-04T01:01:38;17.50;99.70
40828;DHT22;26549;50.918;5.338;2022-07-04T01:04:05;17.20;99.90
40828;DHT22;26549;50.918;5.338;2022-07-04T01:06:32;17.10;99.90
40828;DHT22;26549;50.918;5.338;2022-07-04T01:08:58;17.10;99.90
40828;DHT22;26549;50.918;5.338;2022-07-04T01:11:24;16.90;99.90
40828;DHT22;26549;50.918;5.338;2022-07-04T01:13:50;16.70;99.90
40828;DHT22;26549;50.918;5.338;2022-07-04T01:16:16;16.60;99.90
40828;DHT22;26549;50.918;5.338;2022-07-04T01:18:42;16.50;99.90
40828;DHT22;26549;50.918;5.338;2022-07-04T01:21:08;16.50;99.90
40828;DHT22;26549;50.918;5.338;2022-07-04T01:23:40;16.60;99.90
40828;DHT22;26549;50.918;5.338;2022-07-04T01:26:06;16.50;99.90
40828;DHT22;26549;50.918;5.338;2022-07-04T01:28:32;16.40;99.90
40828;DHT22;26549;50.918;5.338;2022-07-04T01:30:58;16.50;99.90
40828;DHT22;26549;50.918;5.338;2022-07-04T01:33:24;16.60;99.90
40828;DHT22;26549;50.918;5.338;2022-07-04T01:35:50;16.70;99.90
40828;DHT22;26549;50.918;5.338;2022-07-04T01:38:16;16.70;99.90
40828;DHT22;26549;50.918;5.338;2022-07-04T01:40:43;16.80;99.90
40828;DHT22;26549;50.918;5.338;2022-07-04T01:43:09;16.90;99.90
40828;DHT22;26549;50.918;5.338;2022-07-04T01:45:35;16.90;99.90
40828;DHT22;26549;50.918;5.338;2022-07-04T01:48:06;16.90;99.90
40828;DHT22;26549;50.918;5.338;2022-07-04T01:50:33;17.00;99.90
40828;DHT22;26549;50.918;5.338;2022-07-04T01:52:59;16.90;99.90
40828;DHT22;26549;50.918;5.338;2022-07-04T01:55:25;16.60;99.90
40828;DHT22;26549;50.918;5.338;2022-07-04T01:57:52;16.40;99.90
40828;DHT22;26549;50.918;5.338;2022-07-04T02:00:17;16.50;99.90
40828;DHT22;26549;50.918;5.338;2022-07-04T02:03:03;16.50;99.90
40828;DHT22;26549;50.918;5.338;2022-07-04T02:05:29;16.40;99.90
40828;DHT22;26549;50.918;5.338;2022-07-04T02:07:55;16.40;99.90
40828;DHT22;26549;50.918;5.338;2022-07-04T02:10:21;16.30;99.90
40828;DHT22;26549;50.918;5.338;2022-07-04T02:12:47;16.40;99.90
40828;DHT22;26549;50.918;5.338;2022-07-04T02:15:37;16.40;99.90
40828;DHT22;26549;50.918;5.338;2022-07-04T02:18:05;16.40;99.90
40828;DHT22;26549;50.918;5.338;2022-07-04T02:20:32;16.40;99.90
40828;DHT22;26549;50.918;5.338;2022-07-04T02:22:58;16.30;99.90
40828;DHT22;26549;50.918;5.338;2022-07-04T02:25:24;16.40;99.90
40828;DHT22;26549;50.918;5.338;2022-07-04T02:27:50;16.40;99.90
40828;DHT22;26549;50.918;5.338;2022-07-04T02:30:16;16.40;99.90
40828;DHT22;26549;50.918;5.338;2022-07-04T02:32:41;16.20;99.90
40828;DHT22;26549;50.918;5.338;2022-07-04T02:35:08;16.00;99.90
40828;DHT22;26549;50.918;5.338;2022-07-04T02:37:34;15.90;99.90
40828;DHT22;26549;50.918;5.338;2022-07-04T02:40:00;15.80;99.90
40828;DHT22;26549;50.918;5.338;2022-07-04T02:42:32;15.90;99.90
40828;DHT22;26549;50.918;5.338;2022-07-04T02:44:58;15.90;99.90
40828;DHT22;26549;50.918;5.338;2022-07-04T02:47:24;15.90;99.90
40828;DHT22;26549;50.918;5.338;2022-07-04T02:49:50;15.90;99.90
40828;DHT22;26549;50.918;5.338;2022-07-04T02:52:16;15.80;99.90
40828;DHT22;26549;50.918;5.338;2022-07-04T02:54:42;15.70;99.90
40828;DHT22;26549;50.918;5.338;2022-07-04T02:57:08;15.60;99.90
40828;DHT22;26549;50.918;5.338;2022-07-04T02:59:34;15.70;99.90
40828;DHT22;26549;50.918;5.338;2022-07-04T03:02:00;15.70;99.90
40828;DHT22;26549;50.918;5.338;2022-07-04T03:04:26;15.90;99.90
40828;DHT22;26549;50.918;5.338;2022-07-04T03:06:52;15.80;99.90
40828;DHT22;26549;50.918;5.338;2022-07-04T03:09:17;15.60;99.90
40828;DHT22;26549;50.918;5.338;2022-07-04T03:11:44;15.70;99.90
40828;DHT22;26549;50.918;5.338;2022-07-04T03:14:10;15.60;99.90
40828;DHT22;26549;50.918;5.338;2022-07-04T03:16:36;15.60;99.90
40828;DHT22;26549;50.918;5.338;2022-07-04T03:19:01;15.50;99.90
40828;DHT22;26549;50.918;5.338;2022-07-04T03:21:27;15.40;99.90
40828;DHT22;26549;50.918;5.338;2022-07-04T03:23:53;15.30;99.90
40828;DHT22;26549;50.918;5.338;2022-07-04T03:26:29;15.40;99.90
40828;DHT22;26549;50.918;5.338;2022-07-04T03:28:57;15.50;99.90
40828;DHT22;26549;50.918;5.338;2022-07-04T03:31:23;15.70;99.90
40828;DHT22;26549;50.918;5.338;2022-07-04T03:33:49;15.90;99.90
40828;DHT22;26549;50.918;5.338;2022-07-04T03:36:16;15.90;99.90
40828;DHT22;26549;50.918;5.338;2022-07-04T03:38:41;15.90;99.90
40828;DHT22;26549;50.918;5.338;2022-07-04T03:41:07;16.00;99.90
40828;DHT22;26549;50.918;5.338;2022-07-04T03:43:33;15.90;99.90
40828;DHT22;26549;50.918;5.338;2022-07-04T03:45:59;16.00;99.90
40828;DHT22;26549;50.918;5.338;2022-07-04T03:48:25;15.80;99.90
40828;DHT22;26549;50.918;5.338;2022-07-04T03:50:50;15.60;99.90
40828;DHT22;26549;50.918;5.338;2022-07-04T03:53:16;15.70;99.90
40828;DHT22;26549;50.918;5.338;2022-07-04T03:55:43;15.70;99.90
40828;DHT22;26549;50.918;5.338;2022-07-04T03:58:09;15.50;99.90
40828;DHT22;26549;50.918;5.338;2022-07-04T04:00:34;15.40;99.90
40828;DHT22;26549;50.918;5.338;2022-07-04T04:03:01;15.30;99.90
40828;DHT22;26549;50.918;5.338;2022-07-04T04:05:26;15.40;99.90
40828;DHT22;26549;50.918;5.338;2022-07-04T04:07:56;15.50;99.90
40828;DHT22;26549;50.918;5.338;2022-07-04T04:10:24;15.50;99.90
40828;DHT22;26549;50.918;5.338;2022-07-04T04:12:49;15.50;99.90
40828;DHT22;26549;50.918;5.338;2022-07-04T04:15:16;15.60;99.90
40828;DHT22;26549;50.918;5.338;2022-07-04T04:17:41;15.70;99.90
40828;DHT22;26549;50.918;5.338;2022-07-04T04:20:07;15.70;99.90
40828;DHT22;26549;50.918;5.338;2022-07-04T04:22:35;15.70;99.90
40828;DHT22;26549;50.918;5.338;2022-07-04T04:25:02;15.80;99.90
40828;DHT22;26549;50.918;5.338;2022-07-04T04:27:27;15.80;99.90
40828;DHT22;26549;50.918;5.338;2022-07-04T04:29:53;16.00;99.90
40828;DHT22;26549;50.918;5.338;2022-07-04T04:32:19;16.10;99.90
40828;DHT22;26549;50.918;5.338;2022-07-04T04:34:45;16.00;99.90
40828;DHT22;26549;50.918;5.338;2022-07-04T04:37:12;16.00;99.90
40828;DHT22;26549;50.918;5.338;2022-07-04T04:39:37;16.00;99.90
40828;DHT22;26549;50.918;5.338;2022-07-04T04:42:04;16.20;99.90
40828;DHT22;26549;50.918;5.338;2022-07-04T04:44:30;16.20;99.90
40828;DHT22;26549;50.918;5.338;2022-07-04T04:46:56;16.20;99.90
40828;DHT22;26549;50.918;5.338;2022-07-04T04:49:23;16.10;99.90
40828;DHT22;26549;50.918;5.338;2022-07-04T04:51:50;16.10;99.90
40828;DHT22;26549;50.918;5.338;2022-07-04T04:54:15;16.00;99.90
40828;DHT22;26549;50.918;5.338;2022-07-04T04:56:41;15.90;99.90
40828;DHT22;26549;50.918;5.338;2022-07-04T04:59:07;16.00;99.90
40828;DHT22;26549;50.918;5.338;2022-07-04T05:01:33;16.10;99.90
40828;DHT22;26549;50.918;5.338;2022-07-04T05:04:00;16.20;99.90
40828;DHT22;26549;50.918;5.338;2022-07-04T05:06:25;16.10;99.90
40828;DHT22;26549;50.918;5.338;2022-07-04T05:08:51;16.10;99.90
40828;DHT22;26549;50.918;5.338;2022-07-04T05:11:17;16.10;99.90
40828;DHT22;26549;50.918;5.338;2022-07-04T05:13:43;16.00;99.90
40828;DHT22;26549;50.918;5.338;2022-07-04T05:16:10;16.00;99.90
40828;DHT22;26549;50.918;5.338;2022-07-04T05:18:35;16.10;99.90
40828;DHT22;26549;50.918;5.338;2022-07-04T05:21:01;16.10;99.90
40828;DHT22;26549;50.918;5.338;2022-07-04T05:23:27;16.20;99.90
40828;DHT22;26549;50.918;5.338;2022-07-04T05:25:53;16.40;99.90
40828;DHT22;26549;50.918;5.338;2022-07-04T05:28:19;16.50;99.90
40828;DHT22;26549;50.918;5.338;2022-07-04T05:30:44;16.70;99.90
40828;DHT22;26549;50.918;5.338;2022-07-04T05:33:10;16.80;99.90
40828;DHT22;26549;50.918;5.338;2022-07-04T05:35:37;16.90;99.90
40828;DHT22;26549;50.918;5.338;2022-07-04T05:38:05;17.00;99.90
40828;DHT22;26549;50.918;5.338;2022-07-04T05:40:31;17.30;99.90
40828;DHT22;26549;50.918;5.338;2022-07-04T05:42:57;17.20;99.90
40828;DHT22;26549;50.918;5.338;2022-07-04T05:45:23;17.10;99.90
40828;DHT22;26549;50.918;5.338;2022-07-04T05:47:48;17.10;99.90
40828;DHT22;26549;50.918;5.338;2022-07-04T05:50:14;17.00;99.90
40828;DHT22;26549;50.918;5.338;2022-07-04T05:52:40;17.00;99.90
40828;DHT22;26549;50.918;5.338;2022-07-04T05:55:06;17.10;99.90
40828;DHT22;26549;50.918;5.338;2022-07-04T05:57:33;17.20;99.90
40828;DHT22;26549;50.918;5.338;2022-07-04T05:59:59;17.20;99.90
40828;DHT22;26549;50.918;5.338;2022-07-04T06:02:25;17.30;99.90
40828;DHT22;26549;50.918;5.338;2022-07-04T06:04:51;17.40;99.90
40828;DHT22;26549;50.918;5.338;2022-07-04T06:07:17;17.40;99.90
40828;DHT22;26549;50.918;5.338;2022-07-04T06:09:44;17.60;99.90
40828;DHT22;26549;50.918;5.338;2022-07-04T06:12:10;17.70;99.90
40828;DHT22;26549;50.918;5.338;2022-07-04T06:14:36;17.80;99.90
40828;DHT22;26549;50.918;5.338;2022-07-04T06:17:02;17.80;99.90
40828;DHT22;26549;50.918;5.338;2022-07-04T06:19:28;17.90;99.90
40828;DHT22;26549;50.918;5.338;2022-07-04T06:21:53;17.80;99.90
40828;DHT22;26549;50.918;5.338;2022-07-04T06:24:19;18.00;99.90
40828;DHT22;26549;50.918;5.338;2022-07-04T06:26:45;18.30;99.90
40828;DHT22;26549;50.918;5.338;2022-07-04T06:29:11;18.40;99.90
40828;DHT22;26549;50.918;5.338;2022-07-04T06:31:37;18.70;99.90
40828;DHT22;26549;50.918;5.338;2022-07-04T06:34:03;18.60;99.90
40828;DHT22;26549;50.918;5.338;2022-07-04T06:36:47;18.90;99.90
40828;DHT22;26549;50.918;5.338;2022-07-04T06:39:13;18.80;99.90
40828;DHT22;26549;50.918;5.338;2022-07-04T06:41:39;19.10;99.90
40828;DHT22;26549;50.918;5.338;2022-07-04T06:44:04;19.30;99.90
40828;DHT22;26549;50.918;5.338;2022-07-04T06:46:30;19.60;99.90
40828;DHT22;26549;50.918;5.338;2022-07-04T06:48:56;19.80;99.90
40828;DHT22;26549;50.918;5.338;2022-07-04T06:51:23;19.70;99.90
40828;DHT22;26549;50.918;5.338;2022-07-04T06:53:49;19.80;99.80
40828;DHT22;26549;50.918;5.338;2022-07-04T06:56:17;19.80;99.70
40828;DHT22;26549;50.918;5.338;2022-07-04T06:58:43;19.70;99.90
40828;DHT22;26549;50.918;5.338;2022-07-04T07:01:09;19.70;99.80
40828;DHT22;26549;50.918;5.338;2022-07-04T07:03:35;19.70;99.90
40828;DHT22;26549;50.918;5.338;2022-07-04T07:06:01;20.00;99.60
40828;DHT22;26549;50.918;5.338;2022-07-04T07:08:30;20.20;99.20
40828;DHT22;26549;50.918;5.338;2022-07-04T07:10:57;20.20;98.80
40828;DHT22;26549;50.918;5.338;2022-07-04T07:13:41;20.20;99.00
40828;DHT22;26549;50.918;5.338;2022-07-04T07:16:07;20.30;98.40
40828;DHT22;26549;50.918;5.338;2022-07-04T07:18:32;20.30;98.50
40828;DHT22;26549;50.918;5.338;2022-07-04T07:20:58;20.40;98.70
40828;DHT22;26549;50.918;5.338;2022-07-04T07:23:24;20.30;98.20
40828;DHT22;26549;50.918;5.338;2022-07-04T07:25:52;20.40;98.70
40828;DHT22;26549;50.918;5.338;2022-07-04T07:28:17;20.40;98.60
40828;DHT22;26549;50.918;5.338;2022-07-04T07:30:44;20.60;98.00
40828;DHT22;26549;50.918;5.338;2022-07-04T07:33:10;20.60;98.20
40828;DHT22;26549;50.918;5.338;2022-07-04T07:35:36;20.60;97.70
40828;DHT22;26549;50.918;5.338;2022-07-04T07:38:02;20.60;97.40
40828;DHT22;26549;50.918;5.338;2022-07-04T07:40:33;20.80;97.90
40828;DHT22;26549;50.918;5.338;2022-07-04T07:43:05;20.80;98.30
40828;DHT22;26549;50.918;5.338;2022-07-04T07:45:32;20.80;97.80
40828;DHT22;26549;50.918;5.338;2022-07-04T07:47:58;21.00;98.00
40828;DHT22;26549;50.918;5.338;2022-07-04T07:50:23;21.10;96.80
40828;DHT22;26549;50.918;5.338;2022-07-04T07:52:49;21.20;96.70
40828;DHT22;26549;50.918;5.338;2022-07-04T07:55:17;21.20;97.30
40828;DHT22;26549;50.918;5.338;2022-07-04T07:57:42;21.10;96.60
40828;DHT22;26549;50.918;5.338;2022-07-04T08:00:09;21.30;96.70
40828;DHT22;26549;50.918;5.338;2022-07-04T08:02:35;21.30;96.40
40828;DHT22;26549;50.918;5.338;2022-07-04T08:05:19;21.40;96.90
40828;DHT22;26549;50.918;5.338;2022-07-04T08:07:45;21.50;96.70
40828;DHT22;26549;50.918;5.338;2022-07-04T08:10:12;21.60;96.10
40828;DHT22;26549;50.918;5.338;2022-07-04T08:12:38;21.70;95.90
40828;DHT22;26549;50.918;5.338;2022-07-04T08:15:06;21.70;95.90
40828;DHT22;26549;50.918;5.338;2022-07-04T08:17:33;21.60;96.60
40828;DHT22;26549;50.918;5.338;2022-07-04T08:19:59;21.70;95.60
40828;DHT22;26549;50.918;5.338;2022-07-04T08:22:28;21.80;95.70
40828;DHT22;26549;50.918;5.338;2022-07-04T08:24:53;21.80;94.80
40828;DHT22;26549;50.918;5.338;2022-07-04T08:27:20;21.90;96.10
40828;DHT22;26549;50.918;5.338;2022-07-04T08:29:48;21.90;96.10
40828;DHT22;26549;50.918;5.338;2022-07-04T08:32:14;22.20;95.40
40828;DHT22;26549;50.918;5.338;2022-07-04T08:34:39;22.30;94.80
40828;DHT22;26549;50.918;5.338;2022-07-04T08:37:05;22.30;95.40
40828;DHT22;26549;50.918;5.338;2022-07-04T08:39:32;22.40;95.30
40828;DHT22;26549;50.918;5.338;2022-07-04T08:42:03;22.40;95.10
40828;DHT22;26549;50.918;5.338;2022-07-04T08:44:31;22.40;94.30
40828;DHT22;26549;50.918;5.338;2022-07-04T08:46:59;22.40;94.00
40828;DHT22;26549;50.918;5.338;2022-07-04T08:49:30;22.50;94.10
40828;DHT22;26549;50.918;5.338;2022-07-04T08:52:06;22.50;93.40
40828;DHT22;26549;50.918;5.338;2022-07-04T08:54:35;22.60;94.50
40828;DHT22;26549;50.918;5.338;2022-07-04T08:57:19;22.70;92.70
40828;DHT22;26549;50.918;5.338;2022-07-04T09:00:04;22.80;92.60
40828;DHT22;26549;50.918;5.338;2022-07-04T09:02:33;22.80;93.80
40828;DHT22;26549;50.918;5.338;2022-07-04T09:04:59;22.80;93.30
40828;DHT22;26549;50.918;5.338;2022-07-04T09:07:27;22.90;93.90
40828;DHT22;26549;50.918;5.338;2022-07-04T09:09:54;23.00;93.00
40828;DHT22;26549;50.918;5.338;2022-07-04T09:12:21;23.10;93.40
40828;DHT22;26549;50.918;5.338;2022-07-04T09:14:47;23.10;92.70
40828;DHT22;26549;50.918;5.338;2022-07-04T09:17:14;23.00;92.70
40828;DHT22;26549;50.918;5.338;2022-07-04T09:19:40;22.80;91.70
40828;DHT22;26549;50.918;5.338;2022-07-04T09:22:10;22.80;91.70
40828;DHT22;26549;50.918;5.338;2022-07-04T09:24:51;22.60;91.90
40828;DHT22;26549;50.918;5.338;2022-07-04T09:27:40;22.50;92.80
40828;DHT22;26549;50.918;5.338;2022-07-04T09:30:07;22.70;93.00
40828;DHT22;26549;50.918;5.338;2022-07-04T09:32:39;22.90;92.20
40828;DHT22;26549;50.918;5.338;2022-07-04T09:35:16;22.80;91.90
40828;DHT22;26549;50.918;5.338;2022-07-04T09:37:46;22.80;92.30
40828;DHT22;26549;50.918;5.338;2022-07-04T09:40:34;22.80;92.50
40828;DHT22;26549;50.918;5.338;2022-07-04T09:43:24;23.00;91.50
40828;DHT22;26549;50.918;5.338;2022-07-04T09:45:59;22.80;91.90
40828;DHT22;26549;50.918;5.338;2022-07-04T09:48:49;22.70;92.70
40828;DHT22;26549;50.918;5.338;2022-07-04T09:51:17;22.40;92.20
40828;DHT22;26549;50.918;5.338;2022-07-04T09:56:45;22.50;91.90
40828;DHT22;26549;50.918;5.338;2022-07-04T09:59:11;22.60;92.00
40828;DHT22;26549;50.918;5.338;2022-07-04T10:01:37;22.70;91.70
40828;DHT22;26549;50.918;5.338;2022-07-04T10:04:05;23.00;91.20
40828;DHT22;26549;50.918;5.338;2022-07-04T10:06:33;23.00;91.50
40828;DHT22;26549;50.918;5.338;2022-07-04T10:09:10;23.20;91.50
40828;DHT22;26549;50.918;5.338;2022-07-04T10:11:37;23.20;91.10
40828;DHT22;26549;50.918;5.338;2022-07-04T10:14:08;23.20;91.00
40828;DHT22;26549;50.918;5.338;2022-07-04T10:16:35;23.50;90.30
40828;DHT22;26549;50.918;5.338;2022-07-04T10:19:08;23.70;87.70
40828;DHT22;26549;50.918;5.338;2022-07-04T10:21:34;23.60;87.10
40828;DHT22;26549;50.918;5.338;2022-07-04T10:24:00;23.60;90.20
40828;DHT22;26549;50.918;5.338;2022-07-04T10:26:29;23.70;89.80
40828;DHT22;26549;50.918;5.338;2022-07-04T10:28:55;23.60;87.50
40828;DHT22;26549;50.918;5.338;2022-07-04T10:31:23;23.40;87.90
40828;DHT22;26549;50.918;5.338;2022-07-04T10:33:51;23.50;87.60
40828;DHT22;26549;50.918;5.338;2022-07-04T10:36:23;23.40;89.50
40828;DHT22;26549;50.918;5.338;2022-07-04T10:38:53;23.20;90.10
40828;DHT22;26549;50.918;5.338;2022-07-04T10:41:21;23.40;89.60
40828;DHT22;26549;50.918;5.338;2022-07-04T10:43:55;23.50;89.20
40828;DHT22;26549;50.918;5.338;2022-07-04T10:46:26;23.60;90.70
40828;DHT22;26549;50.918;5.338;2022-07-04T10:51:36;24.10;89.60
40828;DHT22;26549;50.918;5.338;2022-07-04T10:54:14;24.30;89.40
40828;DHT22;26549;50.918;5.338;2022-07-04T10:56:43;24.40;87.30
40828;DHT22;26549;50.918;5.338;2022-07-04T10:59:27;24.40;88.00
40828;DHT22;26549;50.918;5.338;2022-07-04T11:13:06;23.90;88.70
40828;DHT22;26549;50.918;5.338;2022-07-04T11:18:10;24.10;88.20
40828;DHT22;26549;50.918;5.338;2022-07-04T11:20:37;24.40;87.00
40828;DHT22;26549;50.918;5.338;2022-07-04T11:23:10;24.40;85.60
40828;DHT22;26549;50.918;5.338;2022-07-04T11:25:39;24.10;87.80
40828;DHT22;26549;50.918;5.338;2022-07-04T11:30:55;24.10;90.50
40828;DHT22;26549;50.918;5.338;2022-07-04T11:33:27;24.30;89.10
40828;DHT22;26549;50.918;5.338;2022-07-04T11:36:03;24.40;87.10
40828;DHT22;26549;50.918;5.338;2022-07-04T11:39:03;24.40;87.20
40828;DHT22;26549;50.918;5.338;2022-07-04T11:41:43;24.40;85.70
40828;DHT22;26549;50.918;5.338;2022-07-04T11:44:29;24.30;86.60
40828;DHT22;26549;50.918;5.338;2022-07-04T11:50:00;24.30;89.00
40828;DHT22;26549;50.918;5.338;2022-07-04T11:52:41;24.50;86.90
40828;DHT22;26549;50.918;5.338;2022-07-04T11:55:09;24.60;87.80
40828;DHT22;26549;50.918;5.338;2022-07-04T11:57:37;24.80;86.40
40828;DHT22;26549;50.918;5.338;2022-07-04T12:00:14;24.80;83.20
40828;DHT22;26549;50.918;5.338;2022-07-04T12:02:40;24.80;83.60
40828;DHT22;26549;50.918;5.338;2022-07-04T12:05:09;24.90;84.80
40828;DHT22;26549;50.918;5.338;2022-07-04T12:07:37;25.00;82.00
40828;DHT22;26549;50.918;5.338;2022-07-04T12:10:15;25.00;83.80
40828;DHT22;26549;50.918;5.338;2022-07-04T12:12:57;25.30;81.40
40828;DHT22;26549;50.918;5.338;2022-07-04T12:15:24;25.40;83.10
40828;DHT22;26549;50.918;5.338;2022-07-04T12:17:52;25.50;82.90
40828;DHT22;26549;50.918;5.338;2022-07-04T12:20:20;25.60;84.60
40828;DHT22;26549;50.918;5.338;2022-07-04T12:22:51;25.80;83.20
40828;DHT22;26549;50.918;5.338;2022-07-04T12:25:29;25.80;82.90
40828;DHT22;26549;50.918;5.338;2022-07-04T12:28:05;25.70;80.90
40828;DHT22;26549;50.918;5.338;2022-07-04T12:30:37;25.70;82.90
40828;DHT22;26549;50.918;5.338;2022-07-04T12:33:06;25.90;83.00
40828;DHT22;26549;50.918;5.338;2022-07-04T12:38:08;25.50;83.40
40828;DHT22;26549;50.918;5.338;2022-07-04T12:40:36;25.50;81.50
40828;DHT22;26549;50.918;5.338;2022-07-04T12:43:03;25.40;81.70
40828;DHT22;26549;50.918;5.338;2022-07-04T12:45:43;25.30;80.50
40828;DHT22;26549;50.918;5.338;2022-07-04T12:48:23;25.00;82.10
40828;DHT22;26549;50.918;5.338;2022-07-04T12:50:49;24.70;83.00
40828;DHT22;26549;50.918;5.338;2022-07-04T12:53:16;24.90;86.20
40828;DHT22;26549;50.918;5.338;2022-07-04T12:55:43;25.20;84.00
40828;DHT22;26549;50.918;5.338;2022-07-04T12:58:10;25.50;84.30
40828;DHT22;26549;50.918;5.338;2022-07-04T13:00:37;25.80;83.10
40828;DHT22;26549;50.918;5.338;2022-07-04T13:03:03;25.90;80.50
40828;DHT22;26549;50.918;5.338;2022-07-04T13:05:29;25.80;81.80
40828;DHT22;26549;50.918;5.338;2022-07-04T13:07:56;25.90;80.70
40828;DHT22;26549;50.918;5.338;2022-07-04T13:10:22;25.80;79.60
40828;DHT22;26549;50.918;5.338;2022-07-04T13:12:48;25.60;80.70
40828;DHT22;26549;50.918;5.338;2022-07-04T13:15:15;25.70;81.20
40828;DHT22;26549;50.918;5.338;2022-07-04T13:17:41;25.60;83.20
40828;DHT22;26549;50.918;5.338;2022-07-04T13:20:07;25.80;82.20
40828;DHT22;26549;50.918;5.338;2022-07-04T13:22:33;25.80;82.50
40828;DHT22;26549;50.918;5.338;2022-07-04T13:24:59;25.70;82.50
40828;DHT22;26549;50.918;5.338;2022-07-04T13:27:27;25.70;81.80
40828;DHT22;26549;50.918;5.338;2022-07-04T13:29:53;25.70;80.40
40828;DHT22;26549;50.918;5.338;2022-07-04T13:32:19;25.80;82.60
40828;DHT22;26549;50.918;5.338;2022-07-04T13:34:45;25.80;81.50
40828;DHT22;26549;50.918;5.338;2022-07-04T13:37:11;25.60;81.00
40828;DHT22;26549;50.918;5.338;2022-07-04T13:39:36;25.60;80.80
40828;DHT22;26549;50.918;5.338;2022-07-04T13:42:02;25.60;81.80
40828;DHT22;26549;50.918;5.338;2022-07-04T13:44:29;25.80;79.50
40828;DHT22;26549;50.918;5.338;2022-07-04T13:46:55;25.80;79.90
40828;DHT22;26549;50.918;5.338;2022-07-04T13:49:22;25.90;82.10
40828;DHT22;26549;50.918;5.338;2022-07-04T13:51:47;26.20;80.20
40828;DHT22;26549;50.918;5.338;2022-07-04T13:54:13;26.10;79.50
40828;DHT22;26549;50.918;5.338;2022-07-04T13:56:39;26.10;78.00
40828;DHT22;26549;50.918;5.338;2022-07-04T13:59:05;25.80;79.20
40828;DHT22;26549;50.918;5.338;2022-07-04T14:01:31;25.90;79.50
40828;DHT22;26549;50.918;5.338;2022-07-04T14:03:57;26.00;80.50
40828;DHT22;26549;50.918;5.338;2022-07-04T14:06:23;26.10;80.70
40828;DHT22;26549;50.918;5.338;2022-07-04T14:08:48;26.00;80.50
40828;DHT22;26549;50.918;5.338;2022-07-04T14:11:14;26.00;79.50
40828;DHT22;26549;50.918;5.338;2022-07-04T14:13:40;25.90;79.20
40828;DHT22;26549;50.918;5.338;2022-07-04T14:16:06;25.70;78.90
40828;DHT22;26549;50.918;5.338;2022-07-04T14:18:32;25.80;81.50
40828;DHT22;26549;50.918;5.338;2022-07-04T14:20:58;26.00;79.90
40828;DHT22;26549;50.918;5.338;2022-07-04T14:23:24;26.20;79.50
40828;DHT22;26549;50.918;5.338;2022-07-04T14:26:13;26.20;78.20
40828;DHT22;26549;50.918;5.338;2022-07-04T14:28:39;26.20;77.70
40828;DHT22;26549;50.918;5.338;2022-07-04T14:31:05;26.10;81.00
40828;DHT22;26549;50.918;5.338;2022-07-04T14:33:32;26.00;79.80
40828;DHT22;26549;50.918;5.338;2022-07-04T14:36:03;26.00;79.90
40828;DHT22;26549;50.918;5.338;2022-07-04T14:38:29;26.00;77.60
40828;DHT22;26549;50.918;5.338;2022-07-04T14:40:55;26.00;79.10
40828;DHT22;26549;50.918;5.338;2022-07-04T14:43:21;26.00;77.80
40828;DHT22;26549;50.918;5.338;2022-07-04T14:45:47;25.90;76.40
40828;DHT22;26549;50.918;5.338;2022-07-04T14:48:14;26.10;77.20
40828;DHT22;26549;50.918;5.338;2022-07-04T14:50:40;26.20;78.90
40828;DHT22;26549;50.918;5.338;2022-07-04T14:53:05;26.20;78.70
40828;DHT22;26549;50.918;5.338;2022-07-04T14:55:31;26.20;77.90
40828;DHT22;26549;50.918;5.338;2022-07-04T14:57:58;26.30;77.60
40828;DHT22;26549;50.918;5.338;2022-07-04T15:00:24;26.20;79.30
40828;DHT22;26549;50.918;5.338;2022-07-04T15:02:49;26.20;77.00
40828;DHT22;26549;50.918;5.338;2022-07-04T15:05:16;26.20;76.50
40828;DHT22;26549;50.918;5.338;2022-07-04T15:07:43;26.10;75.30
40828;DHT22;26549;50.918;5.338;2022-07-04T15:10:09;26.10;76.10
40828;DHT22;26549;50.918;5.338;2022-07-04T15:12:35;26.20;77.20
40828;DHT22;26549;50.918;5.338;2022-07-04T15:15:01;26.20;77.20
40828;DHT22;26549;50.918;5.338;2022-07-04T15:17:27;26.20;77.90
40828;DHT22;26549;50.918;5.338;2022-07-04T15:19:53;26.40;77.20
40828;DHT22;26549;50.918;5.338;2022-07-04T15:22:37;26.10;76.60
40828;DHT22;26549;50.918;5.338;2022-07-04T15:25:21;26.20;76.80
40828;DHT22;26549;50.918;5.338;2022-07-04T15:27:47;26.30;77.20
40828;DHT22;26549;50.918;5.338;2022-07-04T15:30:13;26.20;76.70
40828;DHT22;26549;50.918;5.338;2022-07-04T15:32:39;26.30;79.00
40828;DHT22;26549;50.918;5.338;2022-07-04T15:35:06;26.50;78.70
40828;DHT22;26549;50.918;5.338;2022-07-04T15:37:32;26.60;76.20
40828;DHT22;26549;50.918;5.338;2022-07-04T15:39:57;26.70;77.50
40828;DHT22;26549;50.918;5.338;2022-07-04T15:42:23;26.50;76.90
40828;DHT22;26549;50.918;5.338;2022-07-04T15:44:49;26.50;75.30
40828;DHT22;26549;50.918;5.338;2022-07-04T15:47:15;26.60;78.10
40828;DHT22;26549;50.918;5.338;2022-07-04T15:49:41;26.60;75.70
40828;DHT22;26549;50.918;5.338;2022-07-04T15:52:07;26.80;76.70
40828;DHT22;26549;50.918;5.338;2022-07-04T15:54:34;27.00;76.50
40828;DHT22;26549;50.918;5.338;2022-07-04T15:57:00;26.70;76.80
40828;DHT22;26549;50.918;5.338;2022-07-04T15:59:26;26.30;77.60
40828;DHT22;26549;50.918;5.338;2022-07-04T16:01:52;26.20;77.40